Terminal Aerodrome Forecast
Issued by NWS

Home | Current Version | Previous Version | Text Only | Print | Product List | Glossary On
Versions: 1 2 3 4 5 6 7 8 9 10 11 12 13
199
FTUS43 KSGF 101720
TAFJLN
TAF
KJLN 101720Z 1018/1118 21015G22KT P6SM FEW250
     FM102300 22008KT P6SM SKC
     FM110500 32005KT P6SM SKC
     FM110800 04008KT P6SM FEW200 SCT250=

USA.gov is the U.S. government's official web portal to all federal, state and local government web resources and services.